Аэропорт
Челябинск (USCC)

 USCC / CEK
ЗЦ Екатеринбург
Екатеринбург (USSS)
Челябинск (USCC)
 55.30580, 61.50330  / 769 ft

 USCC 230030Z 25005MPS CAVOK 07/M04 Q1014 R27/000060 NOSIG RMK QFE740

АИП 1605, АИП Таблицы, Данные
показать схемы

2019 © VATRUS division (Privacy Policy)